Aviation Digital Data Service (ADDS)

Output produced by METARs form (0323 UTC 21 September 2017)
found at http://www.aviationweather.gov/adds/metars/
 
MNBL 202128Z 2100/2124 10006KT 6000 VCRA/-TSRA FEW017CB BKN017 
     TEMPO 2107/2112 05004KT 5000 DZ/TSRA SCT017CB SCT070
       
MNMG 202128Z 2100/2124 VRB06KT 8000 TSRA/DZ SCT020CB SCT070 
     BECMG 2103/2105 9000 DZ/HZ FEW020CB SCT021 
     TEMPO 2106/2112 12004KT 9999 FEW021 SCT070
       
MNPC 202128Z 2100/2124 08006KT 8000 HZ BKN016 
     TEMPO 2107/2112 05004KT 7000 VCRA/HZ BKN016TCU